Time;durP1;ratioP1;P1;durP2;ratioP2;P2;SDS_P1;SDS_P2;PMS_P1;PMS_P2;Temp;Humidity;BMP_temperature;BMP_pressure;BME280_temperature;BME280_humidity;BME280_pressure;Samples;Min_cycle;Max_cycle;Signal;HPM_P1;HPM_P2
2021/08/15 00:01:19;;;;;;;27.68;22.50;;;;;;;19.14;67.31;100416.70;128609;1095;22806;-76
2021/08/15 00:03:49;;;;;;;25.28;22.65;;;;;;;19.12;66.96;100418.78;128315;1095;22369;-76
2021/08/15 00:06:19;;;;;;;24.18;21.68;;;;;;;19.07;67.18;100421.31;128349;1095;22360;-76
2021/08/15 00:08:49;;;;;;;25.03;22.33;;;;;;;19.02;66.81;100413.93;128331;1095;22347;-76
2021/08/15 00:11:18;;;;;;;26.45;22.60;;;;;;;18.98;67.29;100404.72;128666;1094;22368;-76
2021/08/15 00:13:48;;;;;;;23.75;21.18;;;;;;;18.96;67.01;100412.13;128642;1093;22344;-76
2021/08/15 00:16:18;;;;;;;25.00;22.58;;;;;;;18.97;67.85;100411.12;128325;1093;22369;-76
2021/08/15 00:18:48;;;;;;;25.73;23.02;;;;;;;18.98;67.68;100404.72;128313;1095;22373;-76
2021/08/15 00:21:17;;;;;;;24.45;21.18;;;;;;;18.95;67.49;100408.64;128398;1095;24486;-76
2021/08/15 00:23:47;;;;;;;23.48;21.18;;;;;;;18.93;67.31;100410.74;128310;1095;22359;-76
2021/08/15 00:26:16;;;;;;;23.30;20.90;;;;;;;18.89;67.27;100406.03;128579;1094;22343;-76
2021/08/15 00:28:46;;;;;;;24.05;21.40;;;;;;;18.86;66.99;100404.64;128581;1095;22830;-76
2021/08/15 00:31:15;;;;;;;23.80;21.03;;;;;;;18.80;67.34;100400.98;128327;1095;24486;-76
2021/08/15 00:33:48;;;;;;;28.60;22.10;;;;;;;18.74;67.22;100398.36;128452;1095;24187;-76
2021/08/15 00:36:18;;;;;;;22.23;20.03;;;;;;;18.71;67.30;100396.91;128420;1094;22372;-76
2021/08/15 00:38:47;;;;;;;24.00;21.58;;;;;;;18.71;67.47;100396.09;128609;1095;22391;-76
2021/08/15 00:41:17;;;;;;;24.33;21.85;;;;;;;18.69;67.82;100398.97;128385;1095;24479;-75
2021/08/15 00:43:46;;;;;;;24.10;21.80;;;;;;;18.69;67.60;100388.27;128667;1095;22344;-75
2021/08/15 00:46:17;;;;;;;26.20;21.40;;;;;;;18.70;67.73;100389.93;128407;1095;22281;-76
2021/08/15 00:48:47;;;;;;;23.13;20.65;;;;;;;18.70;67.87;100387.25;128448;1095;22507;-76
2021/08/15 00:51:17;;;;;;;24.30;21.88;;;;;;;18.71;67.95;100383.53;128522;1095;22343;-77
2021/08/15 00:53:47;;;;;;;24.70;22.28;;;;;;;18.68;67.75;100378.61;128321;1095;22363;-77
2021/08/15 00:56:16;;;;;;;23.95;21.53;;;;;;;18.66;68.29;100377.19;128290;1093;22355;-77
2021/08/15 00:58:46;;;;;;;28.78;20.48;;;;;;;18.64;67.81;100379.28;128343;1095;22357;-77
2021/08/15 01:01:18;;;;;;;23.23;20.68;;;;;;;18.63;68.25;100383.83;128313;1095;22791;-77
2021/08/15 01:03:48;;;;;;;23.80;21.23;;;;;;;18.59;67.98;100374.58;128353;1095;22384;-76
2021/08/15 01:06:18;;;;;;;23.05;20.58;;;;;;;18.53;68.45;100373.62;128243;1095;22363;-76
2021/08/15 01:08:47;;;;;;;23.58;21.25;;;;;;;18.49;68.46;100376.94;128634;1095;24574;-76
2021/08/15 01:11:17;;;;;;;23.63;20.88;;;;;;;18.45;68.31;100373.06;128330;1095;22433;-76
2021/08/15 01:13:46;;;;;;;23.55;21.15;;;;;;;18.41;68.64;100366.52;128296;1095;22339;-76
2021/08/15 01:16:16;;;;;;;23.83;21.38;;;;;;;18.38;68.57;100367.77;128631;1095;24493;-76
2021/08/15 01:18:46;;;;;;;23.65;21.38;;;;;;;18.38;68.76;100369.63;128360;1095;22380;-77
2021/08/15 01:21:15;;;;;;;23.10;20.80;;;;;;;18.38;68.79;100374.98;128629;1095;22376;-76
2021/08/15 01:23:46;;;;;;;23.83;21.43;;;;;;;18.39;68.99;100374.75;128389;1095;22366;-76
2021/08/15 01:26:20;;;;;;;;;;;;;;;18.37;68.77;100362.66;128261;1095;24515;-76
2021/08/15 01:28:52;;;;;;;24.60;21.58;;;;;;;18.35;69.09;100362.86;128674;1095;22687;-76
2021/08/15 01:31:23;;;;;;;30.30;27.13;;;;;;;18.34;68.96;100367.39;128401;1095;22799;-76
2021/08/15 01:33:53;;;;;;;23.40;21.08;;;;;;;18.31;69.17;100365.16;128676;1095;22344;-76
2021/08/15 01:36:22;;;;;;;22.23;20.03;;;;;;;18.31;69.12;100365.16;128620;1095;22337;-76
2021/08/15 01:38:52;;;;;;;23.20;20.90;;;;;;;18.28;69.24;100349.54;128291;1095;22948;-76
2021/08/15 01:41:22;;;;;;;22.23;19.88;;;;;;;18.27;69.16;100355.94;128312;1095;24486;-75
2021/08/15 01:43:58;;;;;;;22.55;20.18;;;;;;;18.28;69.02;100359.42;128309;1094;22344;-75
2021/08/15 01:46:30;;;;;;;23.98;21.45;;;;;;;18.25;68.96;100360.67;128661;1095;22366;-75
2021/08/15 01:49:02;;;;;;;23.93;21.45;;;;;;;18.21;69.05;100361.34;128355;1095;23122;-75
2021/08/15 01:51:32;;;;;;;21.77;19.65;;;;;;;18.16;69.02;100362.00;128372;1095;24081;-75
2021/08/15 01:54:03;;;;;;;21.95;19.75;;;;;;;18.14;69.52;100353.36;128674;1095;22336;-75
2021/08/15 01:56:33;;;;;;;21.25;19.05;;;;;;;18.12;69.08;100352.75;128593;1095;24489;-76
2021/08/15 01:59:03;;;;;;;23.25;18.78;;;;;;;18.14;69.25;100352.55;128659;1095;22362;-76
2021/08/15 02:01:34;;;;;;;21.88;19.43;;;;;;;18.15;69.60;100348.83;128677;1095;22341;-76
2021/08/15 02:04:04;;;;;;;22.00;19.18;;;;;;;18.11;69.12;100353.80;128680;1095;24184;-76
2021/08/15 02:06:34;;;;;;;21.63;18.43;;;;;;;18.09;69.04;100347.83;128405;1095;22325;-76
2021/08/15 02:09:04;;;;;;;20.68;18.53;;;;;;;18.06;69.29;100345.59;128405;1095;22360;-76
2021/08/15 02:11:34;;;;;;;20.53;18.63;;;;;;;18.02;69.35;100347.06;128376;1095;22359;-77
2021/08/15 02:14:03;;;;;;;19.30;17.40;;;;;;;18.02;69.58;100350.55;128630;1095;23128;-76
2021/08/15 02:16:33;;;;;;;21.40;19.13;;;;;;;18.03;69.78;100348.73;128664;1094;22343;-76
2021/08/15 02:19:02;;;;;;;21.20;19.20;;;;;;;18.01;69.46;100348.92;128918;1093;23403;-76
2021/08/15 02:21:31;;;;;;;23.33;18.75;;;;;;;17.98;69.68;100348.55;128693;1095;23299;-76
2021/08/15 02:24:01;;;;;;;20.20;18.15;;;;;;;17.95;69.58;100347.12;128586;1095;22459;-76
2021/08/15 02:26:31;;;;;;;24.68;18.53;;;;;;;17.93;69.43;100351.06;128315;1095;22779;-76
2021/08/15 02:29:00;;;;;;;20.23;17.80;;;;;;;17.91;69.74;100345.92;128304;1095;22343;-75
2021/08/15 02:31:29;;;;;;;19.03;17.20;;;;;;;17.88;69.47;100343.67;128669;1093;22343;-76
2021/08/15 02:33:59;;;;;;;19.83;17.75;;;;;;;17.84;69.32;100337.95;128600;1095;24509;-76
2021/08/15 02:36:29;;;;;;;19.10;16.88;;;;;;;17.82;69.08;100342.67;128312;1095;22353;-76
2021/08/15 02:38:58;;;;;;;18.25;16.53;;;;;;;17.79;69.03;100337.78;128336;1095;22484;-76
2021/08/15 02:41:28;;;;;;;19.63;17.83;;;;;;;17.75;69.41;100344.54;128323;1094;22361;-76
2021/08/15 02:43:57;;;;;;;19.93;17.93;;;;;;;17.71;69.37;100348.68;128588;1094;22362;-76
2021/08/15 02:46:27;;;;;;;20.50;18.30;;;;;;;17.69;69.77;100348.06;128204;1095;22497;-76
2021/08/15 02:48:57;;;;;;;20.80;18.23;;;;;;;17.64;69.76;100343.38;128108;1098;22363;-76
2021/08/15 02:51:26;;;;;;;21.35;19.30;;;;;;;17.63;69.75;100338.27;128238;1095;22446;-75
2021/08/15 02:53:56;;;;;;;22.78;20.48;;;;;;;17.59;69.92;100331.69;128248;1098;22380;-76
2021/08/15 02:56:26;;;;;;;24.50;21.88;;;;;;;17.58;70.10;100335.40;128237;1095;22366;-77
2021/08/15 02:58:55;;;;;;;23.95;21.58;;;;;;;17.57;70.17;100336.44;128223;1098;22370;-76
2021/08/15 03:01:25;;;;;;;24.13;21.65;;;;;;;17.55;70.13;100333.97;128217;1095;22352;-76
2021/08/15 03:03:54;;;;;;;22.43;20.33;;;;;;;17.52;70.27;100334.39;128196;1095;23126;-76
2021/08/15 03:06:24;;;;;;;23.28;21.05;;;;;;;17.51;70.10;100338.11;128618;1095;22363;-76
2021/08/15 03:08:53;;;;;;;23.60;21.08;;;;;;;17.50;70.11;100341.00;128296;1095;23413;-76
2021/08/15 03:11:23;;;;;;;22.40;20.40;;;;;;;17.46;70.24;100324.59;128595;1094;22348;-76
2021/08/15 03:13:52;;;;;;;22.60;20.28;;;;;;;17.44;70.43;100328.50;128651;1095;22344;-76
2021/08/15 03:16:22;;;;;;;21.53;19.53;;;;;;;17.41;70.23;100319.88;128647;1093;24519;-75
2021/08/15 03:18:51;;;;;;;22.48;20.48;;;;;;;17.43;70.67;100325.02;128328;1095;22354;-76
2021/08/15 03:21:21;;;;;;;23.90;21.83;;;;;;;17.44;70.45;100317.81;128653;1095;23866;-76
2021/08/15 03:23:50;;;;;;;24.33;21.88;;;;;;;17.44;70.88;100323.97;128313;1095;23116;-76
2021/08/15 03:26:20;;;;;;;24.03;21.77;;;;;;;17.48;70.75;100335.05;128237;1098;23296;-76
2021/08/15 03:28:50;;;;;;;25.03;22.70;;;;;;;17.51;70.50;100327.42;128030;1098;24532;-76
2021/08/15 03:31:19;;;;;;;23.20;20.80;;;;;;;17.51;70.50;100323.94;127987;1098;22403;-76
2021/08/15 03:33:49;;;;;;;22.85;20.65;;;;;;;17.48;70.55;100324.36;128030;1101;24483;-76
2021/08/15 03:36:19;;;;;;;22.98;20.63;;;;;;;17.44;70.35;100333.84;127981;1101;22363;-76
2021/08/15 03:38:48;;;;;;;22.83;20.60;;;;;;;17.41;70.32;100329.73;128004;1098;22484;-76
2021/08/15 03:41:18;;;;;;;21.30;19.25;;;;;;;17.38;70.63;100330.97;128014;1098;22375;-76
2021/08/15 03:43:48;;;;;;;22.20;19.28;;;;;;;17.38;70.78;100332.83;128029;1098;22359;-76
2021/08/15 03:46:17;;;;;;;22.98;20.78;;;;;;;17.37;70.69;100334.69;128023;1098;22399;-76
2021/08/15 03:48:47;;;;;;;22.25;19.93;;;;;;;17.39;71.01;100329.97;128282;1095;22353;-76
2021/08/15 03:51:17;;;;;;;20.48;18.63;;;;;;;17.44;70.82;100328.50;128592;1095;24161;-76
2021/08/15 03:53:47;;;;;;;22.25;20.15;;;;;;;17.46;71.07;100323.75;128620;1095;22343;-76
2021/08/15 03:56:16;;;;;;;25.43;22.93;;;;;;;17.49;70.36;100324.14;128628;1093;24492;-76
2021/08/15 03:58:46;;;;;;;21.63;19.43;;;;;;;17.53;70.57;100327.23;128317;1095;22359;-76
2021/08/15 04:01:17;;;;;;;20.80;18.80;;;;;;;17.53;70.79;100324.55;128304;1095;22344;-76
2021/08/15 04:03:46;;;;;;;21.63;19.63;;;;;;;17.54;70.79;100328.85;128360;1095;22745;-75
2021/08/15 04:06:25;;;;;;;24.20;21.83;;;;;;;17.53;70.95;100321.88;128709;1095;23135;-76
2021/08/15 04:08:56;;;;;;;21.77;19.78;;;;;;;17.54;70.40;100326.19;128660;1095;24506;-76
2021/08/15 04:11:25;;;;;;;22.35;20.25;;;;;;;17.57;70.89;100325.76;128667;1095;24506;-76
2021/08/15 04:13:57;;;;;;;21.18;19.25;;;;;;;17.56;70.56;100324.94;128404;1095;22441;-76
2021/08/15 04:16:27;;;;;;;22.13;19.75;;;;;;;17.60;70.88;100322.66;128364;1095;24939;-77
2021/08/15 04:18:56;;;;;;;22.55;20.35;;;;;;;17.60;70.77;100322.66;128375;1095;22331;-75
2021/08/15 04:21:26;;;;;;;21.98;19.78;;;;;;;17.61;70.66;100322.43;128716;1093;22422;-76
2021/08/15 04:23:55;;;;;;;23.40;20.90;;;;;;;17.62;70.88;100316.05;128692;1095;22264;-76
2021/08/15 04:26:25;;;;;;;22.55;20.23;;;;;;;17.67;70.96;100322.63;128380;1095;22802;-76
2021/08/15 04:28:55;;;;;;;22.33;20.30;;;;;;;17.71;70.89;100346.02;128312;1095;22335;-76
2021/08/15 04:31:24;;;;;;;20.80;18.88;;;;;;;17.79;70.89;100336.94;128333;1095;22350;-76
2021/08/15 04:33:54;;;;;;;21.98;19.88;;;;;;;17.81;70.61;100367.77;128589;1095;22344;-76
2021/08/15 04:36:23;;;;;;;15.68;14.28;;;;;;;17.87;70.58;100353.55;128279;1095;22334;-76
2021/08/15 04:38:53;;;;;;;16.98;15.28;;;;;;;17.92;70.14;100365.44;128188;1098;22648;-76
2021/08/15 04:41:22;;;;;;;16.40;13.18;;;;;;;18.02;70.13;100350.55;128164;1098;22369;-76
2021/08/15 04:43:52;;;;;;;19.73;17.63;;;;;;;18.14;69.60;100368.59;128165;1098;24237;-77
2021/08/15 04:46:22;;;;;;;15.85;14.25;;;;;;;18.27;69.40;100365.81;128253;1095;22350;-77
2021/08/15 04:48:51;;;;;;;15.38;13.70;;;;;;;18.40;68.75;100356.88;128241;1095;24392;-77
2021/08/15 04:51:21;;;;;;;15.20;12.90;;;;;;;18.48;68.08;100348.55;128469;1095;22412;-77
2021/08/15 04:53:50;;;;;;;18.00;16.10;;;;;;;18.60;68.01;100354.83;128164;1095;22369;-77
2021/08/15 04:56:20;;;;;;;16.00;14.40;;;;;;;18.74;67.72;100366.25;128269;1093;22349;-77
2021/08/15 04:58:49;;;;;;;17.85;14.40;;;;;;;18.84;66.95;100360.39;128561;1095;22865;-79
2021/08/15 05:01:19;;;;;;;14.57;13.17;;;;;;;18.92;66.63;100368.12;128443;1095;22347;-76
2021/08/15 05:03:50;;;;;;;14.25;12.45;;;;;;;18.99;66.34;100348.29;128618;1095;22343;-77
2021/08/15 05:06:21;;;;;;;17.63;13.75;;;;;;;19.08;66.31;100356.83;128905;1095;22344;-76
2021/08/15 05:08:50;;;;;;;17.43;15.88;;;;;;;19.17;65.91;100363.52;128625;1095;22345;-76
2021/08/15 05:11:20;;;;;;;24.08;17.60;;;;;;;19.28;65.52;100359.27;128347;1094;22361;-76
2021/08/15 05:13:49;;;;;;;15.53;13.90;;;;;;;19.41;65.41;100359.10;128489;1095;24486;-76
2021/08/15 05:16:19;;;;;;;16.53;14.83;;;;;;;19.57;65.50;100368.39;128629;1093;22370;-76
2021/08/15 05:18:49;;;;;;;17.33;11.83;;;;;;;19.69;65.07;100363.93;128694;1095;22362;-81
2021/08/15 05:21:19;;;;;;;12.55;11.35;;;;;;;19.80;64.59;100362.33;128902;1095;22630;-78
2021/08/15 05:23:49;;;;;;;11.78;10.73;;;;;;;19.87;64.54;100354.20;128527;1095;23325;-76
2021/08/15 05:26:18;;;;;;;16.65;10.43;;;;;;;19.95;64.03;100360.03;128360;1095;24501;-76
2021/08/15 05:28:48;;;;;;;11.95;10.75;;;;;;;20.06;64.34;100358.45;128386;1095;22370;-77
2021/08/15 05:31:17;;;;;;;11.25;10.10;;;;;;;20.24;64.35;100360.22;128366;1095;22360;-76
2021/08/15 05:33:47;;;;;;;12.00;9.20;;;;;;;20.41;63.08;100358.48;128648;1095;22337;-76
2021/08/15 05:36:16;;;;;;;12.38;9.28;;;;;;;20.61;62.88;100358.16;128328;1095;22826;-77
2021/08/15 05:38:46;;;;;;;9.55;8.65;;;;;;;20.81;62.12;100359.67;128618;1095;22344;-77
2021/08/15 05:41:15;;;;;;;10.98;9.85;;;;;;;20.97;61.38;100345.53;128682;1095;22344;-77
2021/08/15 05:43:45;;;;;;;9.93;8.93;;;;;;;21.07;61.11;100356.48;128698;1093;22371;-77
2021/08/15 05:46:14;;;;;;;12.83;9.93;;;;;;;21.17;60.97;100360.45;128371;1095;22362;-76
2021/08/15 05:48:44;;;;;;;10.98;9.95;;;;;;;21.25;61.18;100352.81;128588;1095;23288;-77
2021/08/15 05:51:14;;;;;;;11.18;10.08;;;;;;;21.36;60.51;100353.88;128591;1095;22337;-77
2021/08/15 05:53:43;;;;;;;13.07;8.73;;;;;;;21.49;60.46;100355.45;128343;1095;22334;-75
2021/08/15 05:56:13;;;;;;;10.38;8.68;;;;;;;21.58;59.93;100356.70;128325;1095;24505;-77
2021/08/15 05:58:42;;;;;;;11.90;10.30;;;;;;;21.71;59.32;100358.29;128644;1095;22350;-78
2021/08/15 06:01:12;;;;;;;12.00;9.10;;;;;;;21.82;59.15;100352.84;128743;1095;22339;-77
2021/08/15 06:03:45;;;;;;;12.40;8.40;;;;;;;21.91;58.56;100364.03;128457;1095;22346;-78
2021/08/15 06:06:16;;;;;;;10.98;7.73;;;;;;;22.05;58.20;100351.89;128603;1095;22585;-76
2021/08/15 06:08:45;;;;;;;8.85;7.95;;;;;;;22.19;57.85;100351.61;128369;1095;22353;-75
2021/08/15 06:11:16;;;;;;;8.43;7.48;;;;;;;22.36;57.12;100357.83;128675;1095;22361;-77
2021/08/15 06:13:45;;;;;;;8.58;6.78;;;;;;;22.65;56.74;100355.00;128434;1095;24252;-76
2021/08/15 06:16:15;;;;;;;7.85;7.18;;;;;;;23.01;55.53;100351.77;128327;1095;22341;-76
2021/08/15 06:18:45;;;;;;;7.70;6.88;;;;;;;23.39;54.01;100351.94;128398;1095;22357;-75
2021/08/15 06:21:14;;;;;;;7.33;6.65;;;;;;;23.82;52.99;100353.77;128323;1095;22240;-76
2021/08/15 06:23:44;;;;;;;7.38;6.68;;;;;;;24.31;51.91;100350.14;128656;1095;22363;-76
2021/08/15 06:26:13;;;;;;;8.95;6.48;;;;;;;24.77;50.54;100350.47;128635;1093;22337;-75
2021/08/15 06:28:43;;;;;;;9.40;6.45;;;;;;;25.10;48.50;100347.39;128635;1095;24229;-75
2021/08/15 06:31:24;;;;;;;8.98;6.90;;;;;;;25.52;48.20;100348.34;128386;1095;24502;-76
2021/08/15 06:33:53;;;;;;;7.28;5.93;;;;;;;25.98;47.79;100357.38;128303;1095;22356;-76
2021/08/15 06:36:24;;;;;;;9.93;5.50;;;;;;;26.36;46.49;100351.67;128622;1095;22413;-76
2021/08/15 06:38:54;;;;;;;10.90;7.23;;;;;;;26.79;45.73;100358.42;128338;1095;22349;-76
2021/08/15 06:41:23;;;;;;;10.07;9.07;;;;;;;27.16;44.61;100349.91;128635;1095;22341;-76
2021/08/15 06:43:53;;;;;;;7.00;6.38;;;;;;;27.53;43.69;100359.48;128293;1095;22347;-76
2021/08/15 06:46:22;;;;;;;8.65;6.50;;;;;;;27.90;43.26;100353.56;128274;1095;22359;-76
2021/08/15 06:48:52;;;;;;;12.13;10.55;;;;;;;28.29;42.54;100358.13;128307;1095;22367;-76
2021/08/15 06:51:22;;;;;;;9.00;6.68;;;;;;;28.62;41.43;100358.36;128358;1093;22378;-76
2021/08/15 06:53:51;;;;;;;6.80;5.63;;;;;;;28.85;40.38;100354.04;128617;1095;23305;-76
2021/08/15 06:56:21;;;;;;;7.45;6.03;;;;;;;29.01;40.35;100357.42;128338;1095;22791;-76
2021/08/15 06:58:50;;;;;;;7.55;5.70;;;;;;;29.35;39.17;100351.81;129283;1095;22355;-77
2021/08/15 07:01:20;;;;;;;10.03;6.08;;;;;;;29.71;38.78;100354.86;128176;1098;22366;-76
2021/08/15 07:03:50;;;;;;;8.05;6.00;;;;;;;29.92;38.44;100358.06;128358;1098;22375;-76
2021/08/15 07:06:20;;;;;;;10.15;5.78;;;;;;;30.13;37.61;100349.59;128359;1095;24217;-76
2021/08/15 07:08:49;;;;;;;15.75;9.48;;;;;;;30.24;37.33;100353.77;128301;1095;22360;-76
2021/08/15 07:11:19;;;;;;;8.65;6.68;;;;;;;30.50;37.08;100350.59;128410;1095;22340;-77
2021/08/15 07:13:48;;;;;;;10.85;6.38;;;;;;;30.63;36.88;100357.98;128254;1095;22519;-76
2021/08/15 07:16:18;;;;;;;11.40;6.55;;;;;;;30.93;36.25;100357.41;128290;1095;25780;-76
2021/08/15 07:18:47;;;;;;;8.63;5.78;;;;;;;31.24;35.39;100354.03;128391;1095;23441;-76
2021/08/15 07:21:19;;;;;;;6.18;5.58;;;;;;;31.52;35.02;100352.06;128457;1095;22373;-77
2021/08/15 07:23:48;;;;;;;7.25;5.40;;;;;;;31.67;34.88;100350.92;128488;1095;22318;-76
2021/08/15 07:26:18;;;;;;;9.05;8.20;;;;;;;31.93;33.99;100351.16;128764;1093;22410;-76
2021/08/15 07:28:47;;;;;;;6.28;5.68;;;;;;;32.09;33.44;100344.19;128753;1095;22337;-77
2021/08/15 07:31:17;;;;;;;9.75;6.78;;;;;;;32.08;33.42;100347.22;128705;1093;22350;-76
2021/08/15 07:33:47;;;;;;;9.38;7.25;;;;;;;32.26;32.93;100348.95;128585;1095;22347;-76
2021/08/15 07:36:16;;;;;;;10.97;6.83;;;;;;;32.31;32.94;100356.20;128694;1094;22363;-77
2021/08/15 07:38:46;;;;;;;13.10;6.40;;;;;;;32.43;33.03;100355.66;128682;1094;22364;-77
2021/08/15 07:41:16;;;;;;;9.83;8.78;;;;;;;32.61;32.55;100354.60;128665;1095;22613;-76
2021/08/15 07:43:46;;;;;;;9.65;7.85;;;;;;;32.61;31.91;100357.34;128628;1095;22378;-77
2021/08/15 07:46:40;;;;;;;;;;;;;;;32.51;32.10;100357.62;128784;1093;22397;-76
2021/08/15 07:49:10;;;;;;;14.63;10.63;;;;;;;32.68;32.63;100359.62;128716;1095;23077;-76
2021/08/15 07:51:39;;;;;;;8.53;6.10;;;;;;;33.00;32.39;100366.69;128321;1098;22455;-76
2021/08/15 07:54:09;;;;;;;7.85;7.15;;;;;;;33.11;32.02;100353.50;128287;1098;24234;-76
2021/08/15 07:56:39;;;;;;;9.88;6.10;;;;;;;33.15;31.87;100352.53;128372;1098;22348;-77
2021/08/15 07:59:10;;;;;;;10.95;6.65;;;;;;;33.35;31.51;100358.52;128063;1097;22522;-77
2021/08/15 08:01:39;;;;;;;;;;;;;;;33.38;31.08;100346.94;128303;1098;22353;-76
2021/08/15 08:04:09;;;;;;;7.48;6.55;;;;;;;33.57;31.86;100350.20;128369;1098;21282;-76
2021/08/15 08:06:43;;;;;;;8.53;5.75;;;;;;;33.62;31.55;100360.17;128378;1098;22385;-75
2021/08/15 08:09:13;;;;;;;8.50;6.15;;;;;;;33.68;31.46;100353.42;128336;1095;22371;-76
2021/08/15 08:11:42;;;;;;;9.78;5.50;;;;;;;33.95;30.43;100352.26;128715;1093;22475;-76
2021/08/15 08:14:12;;;;;;;6.80;5.38;;;;;;;34.12;29.80;100351.45;128458;1095;24495;-75
2021/08/15 08:16:41;;;;;;;10.28;5.60;;;;;;;34.19;29.46;100360.00;128610;1094;24332;-76
2021/08/15 08:19:11;;;;;;;6.17;5.07;;;;;;;34.15;29.64;100353.55;128709;1095;22362;-77
2021/08/15 08:21:41;;;;;;;6.50;5.78;;;;;;;34.15;29.43;100357.08;128506;1095;23942;-76
2021/08/15 08:24:11;;;;;;;5.85;5.05;;;;;;;34.13;29.23;100364.84;128687;1095;22347;-76
2021/08/15 08:26:40;;;;;;;7.20;4.70;;;;;;;34.08;29.22;100364.20;128640;1095;22344;-76
2021/08/15 08:29:09;;;;;;;7.13;5.63;;;;;;;34.12;28.78;100359.67;128677;1094;22961;-75
2021/08/15 08:31:39;;;;;;;;;;;;;;;34.18;28.98;100356.44;128961;1095;22344;-76
2021/08/15 08:34:08;;;;;;;11.00;6.20;;;;;;;34.21;29.18;100352.23;128676;1095;22338;-76
2021/08/15 08:36:38;;;;;;;6.85;5.28;;;;;;;34.41;28.27;100370.72;128483;1095;24495;-76
2021/08/15 08:39:08;;;;;;;7.73;6.93;;;;;;;34.46;28.30;100368.93;128717;1094;22350;-75
2021/08/15 08:41:39;;;;;;;6.53;5.13;;;;;;;34.35;28.01;100358.32;128357;1095;24485;-76
2021/08/15 08:44:09;;;;;;;8.63;5.53;;;;;;;34.20;27.93;100365.15;128363;1094;22359;-75
2021/08/15 08:46:39;;;;;;;9.20;6.10;;;;;;;34.20;28.24;100358.86;128629;1093;22360;-75
2021/08/15 08:49:08;;;;;;;;;;;;;;;34.07;27.82;100359.86;128756;1095;22432;-75
2021/08/15 08:51:38;;;;;;;7.18;4.78;;;;;;;34.06;28.50;100361.80;128460;1095;22196;-76
2021/08/15 08:54:28;;;;;;;11.60;5.07;;;;;;;34.20;28.01;100359.66;128706;1095;22346;-76
2021/08/15 08:56:58;;;;;;;5.78;4.35;;;;;;;34.27;27.22;100356.42;128712;1094;22370;-76
2021/08/15 08:59:28;;;;;;;8.35;4.63;;;;;;;34.12;27.63;100356.94;128666;1095;22353;-76
2021/08/15 09:01:58;;;;;;;8.78;5.18;;;;;;;34.08;27.34;100359.52;128332;1095;22318;-76
2021/08/15 09:04:28;;;;;;;12.00;5.95;;;;;;;34.12;27.09;100355.02;128695;1093;22357;-76
2021/08/15 09:07:10;;;;;;;6.40;5.80;;;;;;;34.17;27.32;100351.29;128648;1095;22344;-76
2021/08/15 09:09:56;;;;;;;8.73;3.88;;;;;;;34.25;26.92;100344.97;128753;1095;22660;-76
2021/08/15 09:13:01;;;;;;;10.55;4.98;;;;;;;34.37;26.49;100352.52;128461;1095;22341;-76
2021/08/15 09:15:30;;;;;;;6.03;4.88;;;;;;;34.61;26.56;100344.55;128133;1098;22353;-75
2021/08/15 09:18:00;;;;;;;6.70;4.73;;;;;;;34.78;26.17;100351.09;128289;1098;22375;-76
2021/08/15 09:20:42;;;;;;;5.78;4.05;;;;;;;34.94;25.44;100346.64;128282;1098;22391;-75
2021/08/15 09:23:40;;;;;;;8.33;5.05;;;;;;;35.10;25.22;100346.91;128314;1097;22365;-76
2021/08/15 09:26:22;;;;;;;7.80;4.60;;;;;;;35.14;25.36;100342.35;127707;1101;23497;-76
2021/08/15 09:28:52;;;;;;;9.55;5.05;;;;;;;34.98;25.66;100336.59;127711;1101;22404;-75
2021/08/15 09:31:32;;;;;;;6.38;4.00;;;;;;;35.05;25.93;100336.91;128069;1101;22458;-76
2021/08/15 09:34:03;;;;;;;10.23;4.35;;;;;;;35.19;25.86;100333.09;127725;1101;22368;-75
2021/08/15 09:36:40;;;;;;;8.73;4.93;;;;;;;35.06;25.46;100338.53;127652;1101;24511;-75
2021/08/15 09:39:11;;;;;;;7.55;4.03;;;;;;;35.13;25.37;100332.52;127683;1101;22651;-76
2021/08/15 09:41:51;;;;;;;7.85;4.08;;;;;;;34.99;25.29;100331.91;127651;1101;24520;-76
2021/08/15 09:44:28;;;;;;;9.47;5.67;;;;;;;35.10;25.25;100322.20;127719;1101;22405;-76
2021/08/15 09:47:09;;;;;;;8.10;4.90;;;;;;;35.26;24.93;100325.95;127540;1105;22724;-75
2021/08/15 09:49:46;;;;;;;6.47;3.83;;;;;;;35.40;24.52;100320.19;127505;1105;22427;-76
2021/08/15 09:52:18;;;;;;;5.70;4.05;;;;;;;35.43;24.67;100324.22;127794;1101;22383;-75
2021/08/15 09:54:56;;;;;;;4.55;3.80;;;;;;;35.48;24.64;100332.23;127999;1101;22454;-75
2021/08/15 09:57:35;;;;;;;4.95;3.68;;;;;;;35.48;24.63;100321.25;127755;1101;22379;-76
2021/08/15 10:00:26;;;;;;;6.78;4.05;;;;;;;35.48;24.32;100324.80;128009;1100;22366;-76
2021/08/15 10:02:56;;;;;;;7.93;3.75;;;;;;;35.35;24.40;100321.18;128073;1097;22669;-75
2021/08/15 10:05:26;;;;;;;;;;;;;;;35.20;24.19;100321.00;128306;1095;22346;-75
2021/08/15 10:07:56;;;;;;;7.08;3.90;;;;;;;35.15;25.02;100315.70;128352;1095;21257;-76
2021/08/15 10:10:26;;;;;;;11.08;5.53;;;;;;;35.14;24.58;100314.89;128677;1095;22366;-75
2021/08/15 10:12:56;;;;;;;5.55;4.28;;;;;;;35.11;24.29;100313.61;128634;1095;22699;-75
2021/08/15 10:15:26;;;;;;;9.05;7.48;;;;;;;35.20;23.86;100304.53;128277;1098;24240;-77
2021/08/15 10:17:57;;;;;;;4.43;3.80;;;;;;;35.12;23.95;100315.24;128264;1097;22388;-76
2021/08/15 10:20:30;;;;;;;6.43;4.13;;;;;;;35.06;24.32;100308.34;128280;1098;22373;-76
2021/08/15 10:23:08;;;;;;;10.03;4.90;;;;;;;34.96;24.40;100316.93;128245;1096;25019;-76
2021/08/15 10:25:43;;;;;;;8.75;4.45;;;;;;;35.00;24.61;100319.81;128107;1098;23318;-76
2021/08/15 10:28:42;;;;;;;8.23;4.13;;;;;;;34.98;24.28;100306.41;128218;1098;24509;-76
2021/08/15 10:31:12;;;;;;;7.53;3.85;;;;;;;35.06;24.08;100304.80;128049;1098;22340;-77
2021/08/15 10:33:57;;;;;;;7.40;3.68;;;;;;;35.06;24.17;100305.59;128118;1098;22469;-77
2021/08/15 10:36:32;;;;;;;5.43;4.00;;;;;;;34.96;24.59;100303.20;128308;1098;22375;-76
2021/08/15 10:39:37;;;;;;;5.30;3.58;;;;;;;34.83;24.51;100299.57;128159;1098;22395;-77
2021/08/15 10:42:06;;;;;;;6.43;3.63;;;;;;;34.62;24.68;100295.97;128312;1098;22360;-74
2021/08/15 10:45:05;;;;;;;7.23;4.80;;;;;;;34.45;24.53;100296.82;128267;1098;22356;-75
2021/08/15 10:47:36;;;;;;;7.35;3.85;;;;;;;34.08;25.42;100301.16;128022;1098;23861;-76
2021/08/15 10:50:08;;;;;;;24.73;12.40;;;;;;;33.78;25.99;100292.02;128044;1098;22360;-77
2021/08/15 10:52:44;;;;;;;17.55;8.20;;;;;;;33.39;26.26;100302.82;127989;1098;23132;-77
2021/08/15 10:55:16;;;;;;;14.68;7.28;;;;;;;33.10;26.74;100297.16;127990;1098;22394;-78
2021/08/15 10:57:54;;;;;;;7.83;4.33;;;;;;;32.75;26.89;100295.11;127992;1098;23114;-77
2021/08/15 11:00:51;;;;;;;12.50;6.37;;;;;;;32.49;27.76;100292.33;127966;1098;24801;-77
2021/08/15 11:03:33;;;;;;;9.00;5.50;;;;;;;32.16;28.22;100291.83;127461;1101;24267;-77
2021/08/15 11:06:06;;;;;;;9.88;5.70;;;;;;;31.81;28.87;100282.58;127731;1101;22459;-78
2021/08/15 11:08:57;;;;;;;5.58;3.48;;;;;;;31.57;29.18;100275.52;128124;1098;22379;-79
2021/08/15 11:11:41;;;;;;;9.10;4.73;;;;;;;31.38;29.19;100278.41;128003;1101;24256;-77
2021/08/15 11:15:09;;;;;;;12.68;4.60;;;;;;;31.11;29.73;100264.83;128095;1101;22443;-78
2021/08/15 11:17:39;;;;;;;12.60;4.95;;;;;;;30.74;30.34;100258.50;127424;1101;22841;-76
2021/08/15 11:20:36;;;;;;;5.55;3.83;;;;;;;30.67;30.94;100266.29;127602;1101;22375;-78
2021/08/15 11:23:15;;;;;;;8.50;4.90;;;;;;;30.58;31.00;100260.73;127650;1101;24518;-76
2021/08/15 11:25:46;;;;;;;6.93;4.95;;;;;;;30.51;30.98;100248.63;127664;1101;22418;-77
2021/08/15 11:28:17;;;;;;;7.03;3.88;;;;;;;30.35;31.04;100257.09;127600;1101;22811;-78
2021/08/15 11:30:55;;;;;;;6.18;3.93;;;;;;;30.21;31.49;100250.84;127625;1101;22417;-77